Nearby METAR Reports

 

KNUQ - Moffett Nas/Mtn, California, USA
Distance from station: N 9mi, 14km
Updated: Mon, 26-Feb-2024 10:55am PST
Overcast
Overcast
 Wind from N
Wind: N 6 mph , 9 km/h
Temperature: 59°F , 15°C
Dew Point: 48°F , 9°C
Humidity: 68%
Barometer: 30.04 inHg , 1017.3 hPa
Clouds: Overcast
Visibility: 10 miles , 16 km
Cloud details: Mostly Cloudy 4200 ft
Mostly Cloudy 5000 ft
Overcast 9000 ft
2024/02/26 18:55 KNUQ 261855Z AUTO 01005KT 10SM BKN042 BKN050 OVC090 15/09 A3004 RMK AO2
KSJC - San Jose, California, USA
Distance from station: NE 9mi, 14km
Updated: Mon, 26-Feb-2024 10:53am PST
Mostly Cloudy
Mostly Cloudy
 Wind from calm
Wind: Calm
Temperature: 63°F , 17°C
Dew Point: 46°F , 8°C
Humidity: 56%
Barometer: 30.04 inHg , 1017.3 hPa
Clouds: Mostly Cloudy
Visibility: 10 miles , 16 km
Cloud details: Few Clouds 2000 ft
Partly Cloudy 5000 ft
Mostly Cloudy 6500 ft
2024/02/26 18:53 KSJC 261853Z 00000KT 10SM FEW020 SCT050 BKN065 17/08 A3004 RMK AO2 SLP170 T01670083
 
KRHV - San Jose/Reid, California, USA
Distance from station: ENE 12mi, 19km
Updated: Mon, 26-Feb-2024 10:47am PST
Partly Cloudy
Partly Cloudy
 Wind from calm
Wind: Calm
Temperature: 61°F , 16°C
Dew Point: 48°F , 9°C
Humidity: 63%
Barometer: 30.04 inHg , 1017.3 hPa
Clouds: Partly Cloudy
Visibility: 10 miles , 16 km
Cloud details: Partly Cloudy 8000 ft
2024/02/26 18:47 KRHV 261847Z 00000KT 10SM SCT080 16/09 A3004
KPAO - Palo Alto, California, USA
Distance from station: NNW 14mi, 23km
Updated: Mon, 26-Feb-2024 10:47am PST
Mostly Cloudy
Mostly Cloudy
 Wind from N
Wind: N 6 mph , 9 km/h
Temperature: 57°F , 14°C
Dew Point: 50°F , 10°C
Humidity: 77%
Barometer: 30.05 inHg , 1017.6 hPa
Clouds: Mostly Cloudy
Visibility: 10 miles , 16 km
Cloud details: Mostly Cloudy 5500 ft
2024/02/26 18:47 KPAO 261847Z 36005KT 10SM BKN055 14/10 A3005
 
KSQL - San Carlos Airpo, California, USA
Distance from station: NW 21mi, 34km
Updated: Mon, 26-Feb-2024 10:50am PST
Mostly Cloudy
Mostly Cloudy
 Wind from NNE
Wind: NNE 7 mph , 11 km/h
Temperature: 57°F , 14°C
Dew Point: 52°F , 11°C
Humidity: 82%
Barometer: 30.06 inHg , 1017.9 hPa
Clouds: Mostly Cloudy
Visibility: 10 miles , 16 km
Cloud details: Mostly Cloudy 2400 ft
2024/02/26 18:50 KSQL 261850Z 02006KT 10SM BKN024 14/11 A3006
KWVI - Watsonville, California, USA
Distance from station: SSE 27mi, 44km
Updated: Sun, 25-Feb-2024 11:53am PST
NOT Current
Clear
Clear
 Wind from WSW
Wind: WSW 8 mph , 13 km/h
Barometer: 30.08 inHg , 1018.6 hPa
Clouds: Clear
Visibility: 10 miles , 16 km
2024/02/25 19:53 KWVI 251953Z AUTO 24007KT 10SM CLR A3008 RMK AO2 SLPNO $
 
KHWD - Hayward, California, USA
Distance from station: N 28mi, 44km
Updated: Mon, 26-Feb-2024 10:54am PST
Mostly Cloudy
Mostly Cloudy
 Wind from WNW
Wind: WNW 7 mph , 11 km/h
Temperature: 61°F , 16°C
Dew Point: 52°F , 11°C
Humidity: 72%
Barometer: 30.04 inHg , 1017.3 hPa
Clouds: Mostly Cloudy
Visibility: 10 miles , 16 km
Cloud details: Mostly Cloudy 2700 ft
2024/02/26 18:54 KHWD 261854Z 29006KT 10SM BKN027 16/11 A3004 RMK AO2 SLP182 T01610111
KSFO - San Francisco, California, USA
Distance from station: NW 30mi, 49km
Updated: Mon, 26-Feb-2024 10:56am PST
Mostly Cloudy
Mostly Cloudy
 Wind from E
Wind: E 3 mph , 6 km/h
Temperature: 57°F , 14°C
Dew Point: 52°F , 11°C
Humidity: 82%
Barometer: 30.05 inHg , 1017.6 hPa
Clouds: Mostly Cloudy
Visibility: 10 miles , 16 km
Cloud details: Partly Cloudy 1200 ft
Mostly Cloudy 2400 ft
Mostly Cloudy 4500 ft
2024/02/26 18:56 KSFO 261856Z 09003KT 10SM SCT012 BKN024 BKN045 14/11 A3005 RMK AO2 SLP175 T01440106 $
 
KHAF - Half Moon Bay, California, USA
Distance from station: WNW 31mi, 50km
Updated: Mon, 26-Feb-2024 10:55am PST
Mist, Mostly cloudy
Mist, Mostly cloudy
 Wind from NW
Wind: NW 8 mph , 13 km/h
Temperature: 59°F , 15°C
Dew Point: 55°F , 13°C
Humidity: 88%
Barometer: 30.05 inHg , 1017.6 hPa
Summary: Mist
Clouds: Mostly Cloudy
Visibility: 4 miles , 6 km
Cloud details: Partly Cloudy 2400 ft
Mostly Cloudy 4000 ft
2024/02/26 18:55 KHAF 261855Z AUTO 32007KT 4SM BR SCT024 BKN040 15/13 A3005 RMK AO2
KOAK - Oakland, California, USA
Distance from station: NNW 31mi, 50km
Updated: Mon, 26-Feb-2024 10:53am PST
Mostly Cloudy
Mostly Cloudy
 Wind from SSW
Wind: SSW 3 mph , 6 km/h
Temperature: 57°F , 14°C
Dew Point: 52°F , 11°C
Humidity: 82%
Barometer: 30.06 inHg , 1017.9 hPa
Clouds: Mostly Cloudy
Visibility: 10 miles , 16 km
Cloud details: Few Clouds 1500 ft
Mostly Cloudy 3000 ft
2024/02/26 18:53 KOAK 261853Z 21003KT 10SM FEW015 BKN030 14/11 A3006 RMK AO2 SLP178 T01440106
 
KLVK - Livermore, California, USA
Distance from station: NNE 31mi, 51km
Updated: Mon, 26-Feb-2024 10:53am PST
Partly Cloudy
Partly Cloudy
 Wind from WNW
Wind: WNW 8 mph , 13 km/h
Temperature: 61°F , 16°C
Dew Point: 52°F , 11°C
Humidity: 72%
Barometer: 30.03 inHg , 1016.9 hPa
Clouds: Partly Cloudy
Visibility: 10 miles , 16 km
Cloud details: Partly Cloudy 2900 ft
2024/02/26 18:53 KLVK 261853Z 30007KT 10SM SCT029 16/11 A3003 RMK AO2 SLP167 T01560111
KCVH - Hollister Muni, California, USA
Distance from station: SE 42mi, 68km
Updated: Mon, 26-Feb-2024 10:55am PST
Few Clouds
Few Clouds
 Wind from calm
Wind: Calm
Temperature: 54°F , 12°C
Dew Point: 46°F , 8°C
Humidity: 77%
Barometer: 30.06 inHg , 1017.9 hPa
Clouds: Few Clouds
Visibility: 10 miles , 16 km
Cloud details: Few Clouds 8000 ft
2024/02/26 18:55 KCVH 261855Z AUTO 00000KT 10SM FEW080 12/08 A3006 RMK A01
 
KSNS - Salinas, California, USA
Distance from station: SSE 48mi, 77km
Updated: Mon, 26-Feb-2024 10:53am PST
Clear
Clear
 Wind from SE
Wind: SE 5 mph , 7 km/h
Temperature: 57°F , 14°C
Dew Point: 48°F , 9°C
Humidity: 72%
Barometer: 30.03 inHg , 1016.9 hPa
Clouds: Clear
Visibility: 10 miles , 16 km
2024/02/26 18:53 KSNS 261853Z 13004KT 10SM CLR 14/09 A3003 RMK AO2 RAE11 SLP178 P0000 T01390094
KMRY - Monterey, California, USA
Distance from station: SSE 49mi, 78km
Updated: Mon, 26-Feb-2024 10:54am PST
Clear
Clear
 Wind from NNW
Wind: NNW 5 mph , 7 km/h
Temperature: 59°F , 15°C
Dew Point: 52°F , 11°C
Humidity: 77%
Barometer: 30.04 inHg , 1017.3 hPa
Clouds: Clear
Visibility: 10 miles , 16 km
2024/02/26 18:54 KMRY 261854Z 34004KT 10SM CLR 15/11 A3004 RMK AO2 RAE01 SLP183 P0000 T01500111
 
KCCR - Concord, California, USA
Distance from station: N 50mi, 81km
Updated: Mon, 26-Feb-2024 10:53am PST
Mostly Cloudy
Mostly Cloudy
 Wind from W
Wind: W 8 mph , 13 km/h
Temperature: 57°F , 14°C
Dew Point: 50°F , 10°C
Humidity: 77%
Barometer: 30.06 inHg , 1017.9 hPa
Clouds: Mostly Cloudy
Visibility: 10 miles , 16 km
Cloud details: Mostly Cloudy 2000 ft
2024/02/26 18:53 KCCR 261853Z 27007KT 10SM BKN020 14/10 A3006 RMK AO2 SLP164 T01440100

Metar display script from Saratoga-Weather.org